createdAt,value
2022-09-28T00:00:22.061Z,16.70
2022-09-28T00:02:53.585Z,16.70
2022-09-28T00:05:29.262Z,16.70
2022-09-28T00:08:14.472Z,16.70
2022-09-28T00:10:43.411Z,16.70
2022-09-28T00:13:13.645Z,16.80
2022-09-28T00:15:52.692Z,16.60
2022-09-28T00:18:24.820Z,16.60
2022-09-28T00:21:19.928Z,16.50
2022-09-28T00:24:18.216Z,16.40
2022-09-28T00:26:55.419Z,16.30
2022-09-28T00:29:39.997Z,16.20
2022-09-28T00:32:14.846Z,16.10
2022-09-28T00:34:49.983Z,16.10
2022-09-28T00:37:25.769Z,16.10
2022-09-28T00:40:02.023Z,15.90
2022-09-28T00:42:33.764Z,15.90
2022-09-28T00:45:15.141Z,15.90
2022-09-28T00:47:52.839Z,15.90
2022-09-28T00:50:34.455Z,15.80
2022-09-28T00:53:20.188Z,15.80
2022-09-28T00:56:04.177Z,15.70
2022-09-28T00:58:36.651Z,15.70
2022-09-28T01:01:09.419Z,15.70
2022-09-28T01:03:39.939Z,15.70
2022-09-28T01:06:12.683Z,15.70
2022-09-28T01:08:47.471Z,15.80
2022-09-28T01:11:23.540Z,15.90
2022-09-28T01:13:54.528Z,15.90
2022-09-28T01:16:57.668Z,15.90
2022-09-28T01:20:05.204Z,15.90
2022-09-28T01:23:01.376Z,15.90
2022-09-28T01:25:58.754Z,16.00
2022-09-28T01:28:35.452Z,16.00
2022-09-28T01:31:17.801Z,16.00
2022-09-28T01:33:52.014Z,16.00
2022-09-28T01:36:46.903Z,15.90
2022-09-28T01:39:34.644Z,15.90
2022-09-28T01:42:19.278Z,15.80
2022-09-28T01:44:57.078Z,15.80
2022-09-28T01:47:33.771Z,15.90
2022-09-28T01:50:26.157Z,15.90
2022-09-28T01:53:20.235Z,15.90
2022-09-28T01:55:55.120Z,15.80
2022-09-28T01:59:11.268Z,15.80
2022-09-28T02:02:10.081Z,15.80
2022-09-28T02:05:24.777Z,15.90
2022-09-28T02:08:18.782Z,15.80
2022-09-28T02:11:03.720Z,15.80
2022-09-28T02:14:04.233Z,15.90
2022-09-28T02:16:47.638Z,15.80
2022-09-28T02:19:37.135Z,15.80
2022-09-28T02:22:30.072Z,15.70
2022-09-28T02:25:06.932Z,15.80
2022-09-28T02:28:06.099Z,15.80
2022-09-28T02:30:38.733Z,15.70
2022-09-28T02:33:44.421Z,15.60
2022-09-28T02:36:16.397Z,15.60
2022-09-28T02:38:48.144Z,15.60
2022-09-28T02:41:36.243Z,15.50
2022-09-28T02:44:44.707Z,15.50
2022-09-28T02:48:24.048Z,15.60
2022-09-28T02:51:22.217Z,15.70
2022-09-28T02:54:07.164Z,15.70
2022-09-28T02:56:47.150Z,15.70
2022-09-28T02:59:44.529Z,15.80
2022-09-28T03:02:35.256Z,15.90
2022-09-28T03:05:33.016Z,15.90
2022-09-28T03:08:17.991Z,15.90
2022-09-28T03:11:12.164Z,15.70
2022-09-28T03:13:42.685Z,15.70
2022-09-28T03:16:21.442Z,15.60
2022-09-28T03:18:55.109Z,15.60
2022-09-28T03:21:28.024Z,15.70
2022-09-28T03:23:59.888Z,15.70
2022-09-28T03:26:33.371Z,15.60
2022-09-28T03:29:03.508Z,15.60
2022-09-28T03:31:34.038Z,15.60
2022-09-28T03:34:05.120Z,15.70
2022-09-28T03:36:38.011Z,15.60
2022-09-28T03:39:13.183Z,15.50
2022-09-28T03:42:03.045Z,15.40
2022-09-28T03:44:38.888Z,15.40
2022-09-28T03:47:13.677Z,15.40
2022-09-28T03:49:45.687Z,15.40
2022-09-28T03:52:23.718Z,15.40
2022-09-28T03:54:54.743Z,15.40
2022-09-28T03:57:27.660Z,15.40
2022-09-28T04:00:03.726Z,15.40
2022-09-28T04:02:45.583Z,15.30
2022-09-28T04:05:19.994Z,15.30
2022-09-28T04:07:53.927Z,15.30
2022-09-28T04:10:24.023Z,15.30
2022-09-28T04:12:59.377Z,15.30
2022-09-28T04:15:29.709Z,15.30
2022-09-28T04:18:01.650Z,15.30
2022-09-28T04:21:11.069Z,15.30
2022-09-28T04:23:59.366Z,15.30
2022-09-28T04:26:29.076Z,15.30
2022-09-28T04:29:17.210Z,15.40
2022-09-28T04:31:59.821Z,15.40
2022-09-28T04:34:43.761Z,15.40
2022-09-28T04:37:15.972Z,15.50
2022-09-28T04:39:48.520Z,15.40
2022-09-28T04:42:21.907Z,15.50
2022-09-28T04:44:54.089Z,15.50
2022-09-28T04:47:25.807Z,15.50
2022-09-28T04:50:14.016Z,15.50
2022-09-28T04:53:03.961Z,15.50
2022-09-28T04:55:38.967Z,15.60
2022-09-28T04:58:11.178Z,15.60
2022-09-28T05:00:43.996Z,15.50
2022-09-28T05:03:35.981Z,15.50
2022-09-28T05:09:14.936Z,15.50
2022-09-28T05:11:47.765Z,15.50
2022-09-28T05:14:46.674Z,15.50
2022-09-28T05:17:24.143Z,15.50
2022-09-28T05:20:07.790Z,15.50
2022-09-28T05:22:42.952Z,15.50
2022-09-28T05:25:14.949Z,15.50
2022-09-28T05:28:06.543Z,15.50
2022-09-28T05:31:03.696Z,15.50
2022-09-28T05:33:54.964Z,15.50
2022-09-28T05:36:23.218Z,15.50
2022-09-28T05:38:57.787Z,15.50
2022-09-28T05:41:29.379Z,15.60
2022-09-28T05:44:03.346Z,15.60
2022-09-28T05:46:41.187Z,15.60
2022-09-28T05:49:14.391Z,15.60
2022-09-28T05:51:43.272Z,15.60
2022-09-28T05:54:16.004Z,15.60
2022-09-28T05:56:50.792Z,15.50
2022-09-28T05:59:20.138Z,15.60
2022-09-28T06:01:51.738Z,15.60
2022-09-28T06:04:21.272Z,15.60
2022-09-28T06:06:51.624Z,15.60
2022-09-28T06:09:26.034Z,15.60
2022-09-28T06:12:20.181Z,15.60
2022-09-28T06:15:00.069Z,15.60
2022-09-28T06:17:37.619Z,15.70
2022-09-28T06:20:48.045Z,15.70
2022-09-28T06:23:21.990Z,15.80
2022-09-28T06:25:53.267Z,15.80
2022-09-28T06:28:23.062Z,15.70
2022-09-28T06:30:54.310Z,15.80
2022-09-28T06:33:27.010Z,15.80
2022-09-28T06:35:57.340Z,15.70
2022-09-28T06:38:30.256Z,15.70
2022-09-28T06:41:00.462Z,15.70
2022-09-28T06:43:34.247Z,15.80
2022-09-28T06:46:18.176Z,15.70
2022-09-28T06:49:10.437Z,15.80
2022-09-28T06:52:02.937Z,15.80
2022-09-28T06:54:54.904Z,15.80
2022-09-28T06:57:29.989Z,15.80
2022-09-28T07:00:14.593Z,15.80
2022-09-28T07:02:47.185Z,15.80
2022-09-28T07:05:42.411Z,15.70
2022-09-28T07:08:38.133Z,15.70
2022-09-28T07:11:36.228Z,15.70
2022-09-28T07:14:31.463Z,15.70
2022-09-28T07:17:13.770Z,15.70
2022-09-28T07:19:47.621Z,15.70
2022-09-28T07:22:19.379Z,15.70
2022-09-28T07:24:53.113Z,15.70
2022-09-28T07:27:51.701Z,15.70
2022-09-28T07:30:37.784Z,15.80
2022-09-28T07:33:21.665Z,15.90
2022-09-28T07:36:02.907Z,15.90
2022-09-28T07:38:36.921Z,15.90
2022-09-28T07:41:14.567Z,15.90
2022-09-28T07:43:53.168Z,16.00
2022-09-28T07:46:24.780Z,16.00
2022-09-28T07:49:01.647Z,16.10
2022-09-28T07:51:38.280Z,16.10
2022-09-28T07:54:41.039Z,16.10
2022-09-28T07:57:32.820Z,16.20
2022-09-28T08:00:40.968Z,16.20
2022-09-28T08:03:15.933Z,16.30
2022-09-28T08:05:53.945Z,16.30
2022-09-28T08:08:26.488Z,16.30
2022-09-28T08:10:58.968Z,16.40
2022-09-28T08:14:04.713Z,16.60
2022-09-28T08:17:26.719Z,16.70
2022-09-28T08:20:30.955Z,16.80
2022-09-28T08:23:13.540Z,16.80
2022-09-28T08:25:50.190Z,17.00
2022-09-28T08:28:27.354Z,17.20
2022-09-28T08:31:01.789Z,17.30
2022-09-28T08:33:39.290Z,17.30
2022-09-28T08:36:31.559Z,17.40
2022-09-28T08:39:22.351Z,17.40
2022-09-28T08:42:24.543Z,17.70
2022-09-28T08:45:23.111Z,17.80
2022-09-28T08:49:23.661Z,17.90
2022-09-28T08:52:30.790Z,17.90
2022-09-28T08:55:36.601Z,18.00
2022-09-28T08:58:22.688Z,17.90
2022-09-28T09:00:52.840Z,17.90
2022-09-28T09:03:37.130Z,17.90
2022-09-28T09:06:46.748Z,17.90
2022-09-28T09:09:57.711Z,18.00
2022-09-28T09:13:01.962Z,17.90
2022-09-28T09:15:55.279Z,17.90
2022-09-28T09:19:00.883Z,17.90
2022-09-28T09:22:19.052Z,17.80
2022-09-28T09:24:56.567Z,17.70
2022-09-28T09:27:37.453Z,17.40
2022-09-28T09:30:20.563Z,17.40
2022-09-28T09:33:24.483Z,17.30
2022-09-28T09:36:51.816Z,17.30
2022-09-28T09:40:14.691Z,17.50
2022-09-28T09:43:35.291Z,17.50
2022-09-28T09:46:39.619Z,17.50
2022-09-28T09:49:30.484Z,17.60
2022-09-28T09:52:17.331Z,17.60
2022-09-28T09:55:06.486Z,17.70
2022-09-28T09:57:57.389Z,17.70
2022-09-28T10:00:49.357Z,17.70
2022-09-28T10:03:31.590Z,17.70
2022-09-28T10:06:19.443Z,17.80
2022-09-28T10:09:03.231Z,17.70
2022-09-28T10:11:49.416Z,17.80
2022-09-28T10:14:26.149Z,17.90
2022-09-28T10:17:07.684Z,17.90
2022-09-28T10:19:57.363Z,17.70
2022-09-28T10:22:44.953Z,17.50
2022-09-28T10:25:20.696Z,17.50
2022-09-28T10:27:53.335Z,17.50
2022-09-28T10:30:28.666Z,17.60
2022-09-28T10:33:06.013Z,17.70
2022-09-28T10:35:47.823Z,17.70
2022-09-28T10:38:20.330Z,17.80
2022-09-28T10:41:21.607Z,17.90
2022-09-28T10:44:18.075Z,17.90
2022-09-28T10:47:10.704Z,17.90
2022-09-28T10:49:47.106Z,17.90
2022-09-28T10:52:47.564Z,18.00
2022-09-28T10:55:39.452Z,18.10
2022-09-28T10:58:28.817Z,18.10
2022-09-28T11:01:10.519Z,18.10
2022-09-28T11:03:58.874Z,18.20
2022-09-28T11:06:36.400Z,18.10
2022-09-28T11:09:39.656Z,18.10
2022-09-28T11:12:17.044Z,18.10
2022-09-28T11:14:52.711Z,18.10
2022-09-28T11:17:44.658Z,18.20
2022-09-28T11:20:37.731Z,18.40
2022-09-28T11:23:27.581Z,18.50
2022-09-28T11:26:18.618Z,18.60
2022-09-28T11:28:52.629Z,18.70
2022-09-28T11:31:39.979Z,18.80
2022-09-28T11:34:41.820Z,18.80
2022-09-28T11:37:45.664Z,18.90
2022-09-28T11:40:35.783Z,19.00
2022-09-28T11:43:19.838Z,19.10
2022-09-28T11:47:01.507Z,19.10
2022-09-28T11:49:49.997Z,19.10
2022-09-28T11:52:44.671Z,19.10
2022-09-28T11:55:29.547Z,19.10
2022-09-28T11:58:36.537Z,19.20
2022-09-28T12:01:38.220Z,19.30
2022-09-28T12:04:23.158Z,19.50
2022-09-28T12:07:19.981Z,19.60
2022-09-28T12:10:15.376Z,19.80
2022-09-28T12:13:06.054Z,19.90
2022-09-28T12:16:32.348Z,20.00
2022-09-28T12:19:20.691Z,20.20
2022-09-28T12:22:00.966Z,20.20
2022-09-28T12:24:46.309Z,20.30
2022-09-28T12:27:33.700Z,20.50
2022-09-28T12:30:18.275Z,20.80
2022-09-28T12:33:22.749Z,21.00
2022-09-28T12:36:30.914Z,21.20
2022-09-28T12:39:27.154Z,21.50
2022-09-28T12:42:23.032Z,21.90
2022-09-28T12:45:38.668Z,22.50
2022-09-28T12:49:21.679Z,23.30
2022-09-28T12:52:06.037Z,24.30
2022-09-28T12:55:00.241Z,26.80
2022-09-28T12:57:43.022Z,29.00
2022-09-28T13:00:25.289Z,31.40
2022-09-28T13:03:37.878Z,33.40
2022-09-28T13:06:38.123Z,35.10
2022-09-28T13:09:20.541Z,35.60
2022-09-28T13:12:35.499Z,36.90
2022-09-28T13:15:23.598Z,37.10
2022-09-28T13:18:12.837Z,36.80
2022-09-28T13:21:04.708Z,38.70
2022-09-28T13:23:45.826Z,40.00
2022-09-28T13:26:38.293Z,40.20
2022-09-28T13:29:13.094Z,41.20
2022-09-28T13:31:56.044Z,41.60
2022-09-28T13:34:32.249Z,42.50
2022-09-28T13:37:27.824Z,43.50
2022-09-28T13:39:59.041Z,43.00
2022-09-28T13:43:08.403Z,42.00
2022-09-28T13:46:26.716Z,42.60
2022-09-28T13:49:12.589Z,43.00
2022-09-28T13:52:13.619Z,43.10
2022-09-28T13:55:19.917Z,41.90
2022-09-28T13:57:56.908Z,41.50
2022-09-28T14:00:39.732Z,40.60
2022-09-28T14:03:29.675Z,40.00
2022-09-28T14:06:05.442Z,39.50
2022-09-28T14:09:04.116Z,37.50
2022-09-28T14:11:42.332Z,35.70
2022-09-28T14:14:17.147Z,34.20
2022-09-28T14:16:46.741Z,32.90
2022-09-28T14:19:38.816Z,31.60
2022-09-28T14:22:21.035Z,30.00
2022-09-28T14:24:58.178Z,28.50
2022-09-28T14:30:17.530Z,27.60
2022-09-28T14:33:00.399Z,26.20
2022-09-28T14:35:52.227Z,25.40
2022-09-28T14:38:45.011Z,25.10
2022-09-28T14:41:36.868Z,24.90
2022-09-28T14:44:06.668Z,24.80
2022-09-28T14:46:47.932Z,24.80
2022-09-28T14:49:20.177Z,24.80
2022-09-28T14:51:49.371Z,24.70
2022-09-28T14:54:29.309Z,24.50
2022-09-28T14:57:22.256Z,24.30
2022-09-28T14:59:52.925Z,24.20
2022-09-28T15:02:36.812Z,24.00
2022-09-28T15:05:11.217Z,23.80
2022-09-28T15:07:58.696Z,23.70
2022-09-28T15:10:46.266Z,23.60
2022-09-28T15:13:25.884Z,23.50
2022-09-28T15:19:41.544Z,23.20
2022-09-28T15:22:25.393Z,22.90
2022-09-28T15:25:06.576Z,22.80
2022-09-28T15:27:38.460Z,22.70
2022-09-28T15:30:28.345Z,22.60
2022-09-28T15:33:44.152Z,22.50
2022-09-28T15:36:28.164Z,22.40
2022-09-28T15:39:05.211Z,22.20
2022-09-28T15:41:36.468Z,22.10
2022-09-28T15:44:29.767Z,22.00
2022-09-28T15:47:21.810Z,21.90
2022-09-28T15:50:06.193Z,21.70
2022-09-28T15:53:08.001Z,21.60
2022-09-28T15:55:40.147Z,21.60
2022-09-28T15:58:25.701Z,21.50
2022-09-28T16:01:24.931Z,21.50
2022-09-28T16:03:59.377Z,21.40
2022-09-28T16:06:29.979Z,21.40
2022-09-28T16:09:04.679Z,21.30
2022-09-28T16:11:41.212Z,21.20
2022-09-28T16:14:24.111Z,21.10
2022-09-28T16:16:59.651Z,21.10
2022-09-28T16:19:43.999Z,21.00
2022-09-28T16:22:17.612Z,20.90
2022-09-28T16:24:59.662Z,20.80
2022-09-28T16:27:46.066Z,20.70
2022-09-28T16:30:47.653Z,20.60
2022-09-28T16:33:51.721Z,20.50
2022-09-28T16:36:29.081Z,20.50
2022-09-28T16:39:01.940Z,20.40
2022-09-28T16:41:32.815Z,20.40
2022-09-28T16:44:04.321Z,20.30
2022-09-28T16:46:39.654Z,20.30
2022-09-28T16:49:20.900Z,20.20
2022-09-28T16:52:03.719Z,20.20
2022-09-28T16:54:52.549Z,20.20
2022-09-28T16:57:23.926Z,20.20
2022-09-28T16:59:54.876Z,20.20
2022-09-28T17:02:45.609Z,20.20
2022-09-28T17:05:20.836Z,20.20
2022-09-28T17:08:06.396Z,20.20
2022-09-28T17:11:18.122Z,20.20
2022-09-28T17:13:50.351Z,20.10
2022-09-28T17:16:49.375Z,20.20
2022-09-28T17:19:34.733Z,20.20
2022-09-28T17:22:06.506Z,20.20
2022-09-28T17:24:35.429Z,20.20
2022-09-28T17:27:07.935Z,20.10
2022-09-28T17:29:39.400Z,20.10
2022-09-28T17:32:19.900Z,20.10
2022-09-28T17:35:00.781Z,20.00
2022-09-28T17:37:30.558Z,20.00
2022-09-28T17:40:02.211Z,20.00
2022-09-28T17:45:20.087Z,19.90
2022-09-28T17:47:51.866Z,19.70
2022-09-28T17:50:33.207Z,19.70
2022-09-28T17:53:08.235Z,19.70
2022-09-28T17:55:42.185Z,19.60
2022-09-28T17:58:22.124Z,19.70
2022-09-28T18:00:55.406Z,19.70
2022-09-28T18:06:09.940Z,19.70
2022-09-28T18:08:40.137Z,19.80
2022-09-28T18:11:12.632Z,19.70
2022-09-28T18:13:47.138Z,19.80
2022-09-28T18:16:19.775Z,19.80
2022-09-28T18:18:56.918Z,19.80
2022-09-28T18:21:29.050Z,19.80
2022-09-28T18:24:02.733Z,19.70
2022-09-28T18:26:30.842Z,19.70
2022-09-28T18:29:04.165Z,19.60
2022-09-28T18:31:42.203Z,19.50
2022-09-28T18:34:18.455Z,19.50
2022-09-28T18:36:53.703Z,19.40
2022-09-28T18:39:25.623Z,19.40
2022-09-28T18:42:09.479Z,19.50
2022-09-28T18:44:39.164Z,19.50
2022-09-28T18:47:19.230Z,19.50
2022-09-28T18:49:53.179Z,19.50
2022-09-28T18:52:26.072Z,19.50
2022-09-28T18:54:58.560Z,19.50
2022-09-28T18:57:32.874Z,19.50
2022-09-28T19:00:07.200Z,19.50
2022-09-28T19:02:44.448Z,19.50
2022-09-28T19:05:19.634Z,19.40
2022-09-28T19:07:51.885Z,19.40
2022-09-28T19:10:26.664Z,19.30
2022-09-28T19:12:59.171Z,19.30
2022-09-28T19:15:34.071Z,19.30
2022-09-28T19:18:04.070Z,19.30
2022-09-28T19:20:39.232Z,19.30
2022-09-28T19:23:12.136Z,19.30
2022-09-28T19:25:49.073Z,19.30
2022-09-28T19:28:21.256Z,19.30
2022-09-28T19:33:32.330Z,19.30
2022-09-28T19:36:08.580Z,19.40
2022-09-28T19:38:40.454Z,19.40
2022-09-28T19:41:13.012Z,19.40
2022-09-28T19:43:43.723Z,19.50
2022-09-28T19:46:13.752Z,19.50
2022-09-28T19:48:46.092Z,19.50
2022-09-28T19:51:17.041Z,19.50
2022-09-28T19:53:50.241Z,19.50
2022-09-28T19:56:21.247Z,19.40
2022-09-28T19:58:52.311Z,19.40
2022-09-28T20:01:23.247Z,19.30
2022-09-28T20:03:52.896Z,19.20
2022-09-28T20:06:29.378Z,19.20
2022-09-28T20:08:59.757Z,19.10
2022-09-28T20:11:33.278Z,19.20
2022-09-28T20:14:13.398Z,19.10
2022-09-28T20:16:42.249Z,19.20
2022-09-28T20:19:13.315Z,19.20
2022-09-28T20:21:44.077Z,19.20
2022-09-28T20:24:26.920Z,19.20
2022-09-28T20:26:58.394Z,19.20
2022-09-28T20:29:33.814Z,19.10
2022-09-28T20:32:09.175Z,19.10
2022-09-28T20:34:41.538Z,19.10
2022-09-28T20:37:16.455Z,19.20
2022-09-28T20:39:47.243Z,19.20
2022-09-28T20:42:18.911Z,19.20
2022-09-28T20:44:49.169Z,19.10
2022-09-28T20:47:19.324Z,19.10
2022-09-28T20:49:51.208Z,19.10
2022-09-28T20:52:24.336Z,19.10
2022-09-28T20:54:56.435Z,19.00
2022-09-28T20:57:29.322Z,19.10
2022-09-28T21:00:00.092Z,19.00
2022-09-28T21:02:30.280Z,19.00
2022-09-28T21:05:01.479Z,18.90
2022-09-28T21:07:34.538Z,18.90
2022-09-28T21:10:08.903Z,18.90
2022-09-28T21:12:43.005Z,18.90
2022-09-28T21:15:17.325Z,18.80
2022-09-28T21:17:47.497Z,18.80
2022-09-28T21:20:17.464Z,18.80
2022-09-28T21:22:48.690Z,18.70
2022-09-28T21:25:20.142Z,18.60
2022-09-28T21:27:54.153Z,18.60
2022-09-28T21:30:25.269Z,18.60
2022-09-28T21:32:59.228Z,18.60
2022-09-28T21:35:30.430Z,18.60
2022-09-28T21:38:03.170Z,18.70
2022-09-28T21:40:37.395Z,18.70
2022-09-28T21:43:10.323Z,18.70
2022-09-28T21:45:43.654Z,18.70
2022-09-28T21:48:14.895Z,18.70
2022-09-28T21:50:58.167Z,18.60
2022-09-28T21:53:32.471Z,18.70
2022-09-28T21:56:02.476Z,18.70
2022-09-28T21:58:37.791Z,18.70
2022-09-28T22:03:57.269Z,18.70
2022-09-28T22:06:31.385Z,18.70
2022-09-28T22:09:00.195Z,18.60
2022-09-28T22:11:36.475Z,18.50
2022-09-28T22:14:21.094Z,18.50
2022-09-28T22:16:54.827Z,18.40
2022-09-28T22:19:24.367Z,18.30
2022-09-28T22:21:55.797Z,18.30
2022-09-28T22:24:26.345Z,18.30
2022-09-28T22:27:00.835Z,18.30
2022-09-28T22:29:30.855Z,18.30
2022-09-28T22:32:05.336Z,18.20
2022-09-28T22:34:36.624Z,18.20
2022-09-28T22:37:09.695Z,18.20
2022-09-28T22:39:43.236Z,18.20
2022-09-28T22:42:16.731Z,18.20
2022-09-28T22:44:47.399Z,18.10
2022-09-28T22:47:16.558Z,18.20
2022-09-28T22:49:47.230Z,18.10
2022-09-28T22:55:00.924Z,18.10
2022-09-28T22:57:29.125Z,18.10
2022-09-28T23:00:03.462Z,18.10
2022-09-28T23:02:37.817Z,18.20
2022-09-28T23:05:09.403Z,18.20
2022-09-28T23:07:44.253Z,18.20
2022-09-28T23:10:16.070Z,18.20
2022-09-28T23:12:50.901Z,18.30
2022-09-28T23:15:25.919Z,18.30
2022-09-28T23:17:57.262Z,18.30
2022-09-28T23:20:27.961Z,18.30
2022-09-28T23:22:55.652Z,18.30
2022-09-28T23:25:31.298Z,18.30
2022-09-28T23:28:03.182Z,18.30
2022-09-28T23:30:34.904Z,18.30
2022-09-28T23:33:10.581Z,18.30
2022-09-28T23:35:48.528Z,18.30
2022-09-28T23:38:21.504Z,18.30
2022-09-28T23:40:54.576Z,18.30
2022-09-28T23:43:27.049Z,18.20
2022-09-28T23:46:00.381Z,18.20
2022-09-28T23:48:36.029Z,18.20
2022-09-28T23:51:07.655Z,18.20
2022-09-28T23:53:40.678Z,18.30
2022-09-28T23:56:15.677Z,18.30
2022-09-28T23:58:45.779Z,18.30
